createdAt,value
2018-07-16T00:02:52.463Z,100349.73
2018-07-16T00:05:49.827Z,100348.73
2018-07-16T00:08:47.788Z,100344.48
2018-07-16T00:11:45.662Z,100350.55
2018-07-16T00:14:43.560Z,100346.59
2018-07-16T00:17:41.609Z,100342.19
2018-07-16T00:20:39.455Z,100341.86
2018-07-16T00:23:37.454Z,100339.42
2018-07-16T00:26:35.389Z,100336.30
2018-07-16T00:29:33.178Z,100334.50
2018-07-16T00:32:31.336Z,100338.51
2018-07-16T00:35:29.288Z,100336.82
2018-07-16T00:38:27.439Z,100336.63
2018-07-16T00:41:25.087Z,100339.50
2018-07-16T00:44:23.254Z,100337.60
2018-07-16T00:47:21.034Z,100332.09
2018-07-16T00:50:18.308Z,100331.56
2018-07-16T00:53:15.602Z,100324.67
2018-07-16T00:56:12.726Z,100325.10
2018-07-16T00:59:09.872Z,100323.14
2018-07-16T01:02:07.914Z,100324.34
2018-07-16T01:05:05.742Z,100322.70
2018-07-16T01:08:03.245Z,100320.48
2018-07-16T01:11:01.193Z,100318.56
2018-07-16T01:13:59.027Z,100321.45
2018-07-16T01:16:56.763Z,100318.86
2018-07-16T01:19:54.656Z,100319.83
2018-07-16T01:22:51.730Z,100318.64
2018-07-16T01:25:49.885Z,100318.23
2018-07-16T01:28:47.634Z,100310.05
2018-07-16T01:31:45.409Z,100313.38
2018-07-16T01:34:43.659Z,100310.90
2018-07-16T01:37:41.787Z,100312.17
2018-07-16T01:40:39.819Z,100314.36
2018-07-16T01:43:37.810Z,100308.91
2018-07-16T01:46:35.770Z,100308.80
2018-07-16T01:49:33.622Z,100302.80
2018-07-16T01:52:31.588Z,100299.56
2018-07-16T01:55:29.126Z,100298.41
2018-07-16T01:58:26.474Z,100296.09
2018-07-16T02:01:23.733Z,100302.93
2018-07-16T02:04:21.740Z,100296.59
2018-07-16T02:07:19.074Z,100295.69
2018-07-16T02:10:16.513Z,100291.03
2018-07-16T02:13:14.122Z,100293.48
2018-07-16T02:16:11.654Z,100299.16
2018-07-16T02:19:08.881Z,100304.71
2018-07-16T02:22:07.102Z,100292.73
2018-07-16T02:25:04.414Z,100297.81
2018-07-16T02:28:02.072Z,100291.30
2018-07-16T02:30:59.980Z,100289.78
2018-07-16T02:33:57.514Z,100290.75
2018-07-16T02:36:55.409Z,100289.53
2018-07-16T02:39:52.661Z,100291.39
2018-07-16T02:42:49.767Z,100293.23
2018-07-16T02:45:47.398Z,100290.41
2018-07-16T02:48:45.326Z,100289.78
2018-07-16T02:51:43.062Z,100294.03
2018-07-16T02:54:40.931Z,100292.84
2018-07-16T02:57:39.175Z,100284.86
2018-07-16T03:00:36.980Z,100278.77
2018-07-16T03:03:34.858Z,100288.27
2018-07-16T03:06:32.719Z,100289.74
2018-07-16T03:09:30.762Z,100287.91
2018-07-16T03:12:28.522Z,100286.99
2018-07-16T03:15:27.767Z,100288.42
2018-07-16T03:18:25.875Z,100288.27
2018-07-16T03:21:24.106Z,100293.92
2018-07-16T03:24:21.472Z,100297.17
2018-07-16T03:27:18.942Z,100287.73
2018-07-16T03:30:16.748Z,100284.92
2018-07-16T03:33:14.646Z,100287.31
2018-07-16T03:36:12.025Z,100286.77
2018-07-16T03:39:08.879Z,100289.78
2018-07-16T03:42:06.377Z,100290.47
2018-07-16T03:45:03.746Z,100298.26
2018-07-16T03:48:01.671Z,100285.78
2018-07-16T03:50:59.571Z,100289.30
2018-07-16T03:53:57.455Z,100285.61
2018-07-16T03:56:54.515Z,100286.84
2018-07-16T03:59:52.726Z,100288.12
2018-07-16T04:02:50.251Z,100284.81
2018-07-16T04:05:48.183Z,100278.66
2018-07-16T04:08:45.922Z,100283.40
2018-07-16T04:11:43.869Z,100280.37
2018-07-16T04:14:41.707Z,100276.03
2018-07-16T04:17:38.745Z,100279.70
2018-07-16T04:20:36.360Z,100275.29
2018-07-16T04:23:34.399Z,100276.88
2018-07-16T04:26:31.550Z,100276.68
2018-07-16T04:29:29.033Z,100274.91
2018-07-16T04:32:26.346Z,100278.55
2018-07-16T04:35:23.638Z,100268.04
2018-07-16T04:38:20.959Z,100271.45
2018-07-16T04:41:18.574Z,100267.05
2018-07-16T04:44:16.220Z,100261.70
2018-07-16T04:47:14.186Z,100270.71
2018-07-16T04:50:11.894Z,100254.41
2018-07-16T04:53:09.494Z,100266.96
2018-07-16T04:56:07.727Z,100260.48
2018-07-16T04:59:05.586Z,100263.79
2018-07-16T05:02:03.622Z,100260.19
2018-07-16T05:05:01.068Z,100255.73
2018-07-16T05:07:59.118Z,100254.37
2018-07-16T05:10:56.923Z,100264.50
2018-07-16T05:13:54.919Z,100262.03
2018-07-16T05:16:52.815Z,100265.80
2018-07-16T05:19:50.169Z,100253.55
2018-07-16T05:22:47.802Z,100250.09
2018-07-16T05:25:45.703Z,100246.84
2018-07-16T05:28:43.680Z,100240.66
2018-07-16T05:31:41.363Z,100245.09
2018-07-16T05:34:39.418Z,100248.14
2018-07-16T05:37:36.904Z,100243.25
2018-07-16T05:40:34.909Z,100242.71
2018-07-16T05:43:32.406Z,100241.50
2018-07-16T05:46:30.484Z,100236.87
2018-07-16T05:49:27.823Z,100235.58
2018-07-16T05:52:25.095Z,100233.95
2018-07-16T05:55:22.666Z,100242.73
2018-07-16T05:58:20.764Z,100238.75
2018-07-16T06:01:18.375Z,100240.36
2018-07-16T06:04:15.542Z,100231.92
2018-07-16T06:07:13.017Z,100235.28
2018-07-16T06:10:10.985Z,100241.17
2018-07-16T06:13:08.530Z,100233.81
2018-07-16T06:16:06.090Z,100231.98
2018-07-16T06:19:03.683Z,100238.32
2018-07-16T06:22:01.833Z,100228.78
2018-07-16T06:24:58.951Z,100230.86
2018-07-16T06:27:56.702Z,100227.85
2018-07-16T06:30:53.901Z,100221.43
2018-07-16T06:33:52.139Z,100215.67
2018-07-16T06:36:49.707Z,100232.51
2018-07-16T06:39:47.762Z,100229.27
2018-07-16T06:42:45.657Z,100228.16
2018-07-16T06:45:42.808Z,100210.55
2018-07-16T06:48:40.127Z,100217.33
2018-07-16T06:51:37.431Z,100213.82
2018-07-16T06:54:34.520Z,100228.36
2018-07-16T06:57:32.263Z,100220.61
2018-07-16T07:00:29.511Z,100219.30
2018-07-16T07:03:26.670Z,100225.44
2018-07-16T07:06:24.762Z,100226.39
2018-07-16T07:09:22.144Z,100224.42
2018-07-16T07:12:19.688Z,100228.13
2018-07-16T07:15:17.231Z,100224.60
2018-07-16T07:18:14.278Z,100221.20
2018-07-16T07:21:11.402Z,100216.61
2018-07-16T07:24:08.993Z,100213.00
2018-07-16T07:27:06.175Z,100211.65
2018-07-16T07:30:04.330Z,100208.37
2018-07-16T07:33:01.434Z,100214.66
2018-07-16T07:35:58.668Z,100211.28
2018-07-16T07:38:56.515Z,100212.66
2018-07-16T07:41:53.657Z,100220.11
2018-07-16T07:44:51.258Z,100211.83
2018-07-16T07:47:49.413Z,100211.13
2018-07-16T07:50:47.270Z,100205.44
2018-07-16T07:53:45.279Z,100210.84
2018-07-16T07:56:43.069Z,100212.73
2018-07-16T07:59:41.208Z,100213.14
2018-07-16T08:02:38.431Z,100199.58
2018-07-16T08:05:35.749Z,100190.48
2018-07-16T08:08:33.869Z,100186.78
2018-07-16T08:11:31.894Z,100188.42
2018-07-16T08:14:29.815Z,100179.30
2018-07-16T08:17:27.915Z,100172.07
2018-07-16T08:20:25.802Z,100167.98
2018-07-16T08:23:23.726Z,100170.27
2018-07-16T08:26:20.853Z,100168.95
2018-07-16T08:29:18.481Z,100175.92
2018-07-16T08:32:16.565Z,100177.14
2018-07-16T08:35:14.775Z,100165.77
2018-07-16T08:38:12.838Z,100165.50
2018-07-16T08:41:10.733Z,100159.70
2018-07-16T08:44:08.526Z,100162.76
2018-07-16T08:47:06.008Z,100157.50
2018-07-16T08:50:03.802Z,100156.50
2018-07-16T08:53:01.448Z,100162.20
2018-07-16T08:55:58.955Z,100155.93
2018-07-16T08:58:56.886Z,100163.63
2018-07-16T09:01:54.682Z,100170.70
2018-07-16T09:04:52.658Z,100162.50
2018-07-16T09:07:50.880Z,100145.63
2018-07-16T09:10:48.644Z,100139.23
2018-07-16T09:13:46.621Z,100149.14
2018-07-16T09:16:44.681Z,100154.95
2018-07-16T09:19:42.111Z,100157.09
2018-07-16T09:22:39.438Z,100151.39
2018-07-16T09:25:36.931Z,100141.25
2018-07-16T09:28:35.111Z,100149.77
2018-07-16T09:31:32.993Z,100137.75
2018-07-16T09:34:30.438Z,100142.09
2018-07-16T09:37:28.362Z,100135.39
2018-07-16T09:40:26.607Z,100134.21
2018-07-16T09:43:24.014Z,100134.63
2018-07-16T09:46:21.848Z,100139.89
2018-07-16T09:49:19.368Z,100140.97
2018-07-16T09:52:17.423Z,100134.55
2018-07-16T09:55:15.532Z,100131.20
2018-07-16T09:58:13.234Z,100128.80
2018-07-16T10:01:16.799Z,100131.41
2018-07-16T10:04:14.787Z,100128.42
2018-07-16T10:07:12.769Z,100121.45
2018-07-16T10:10:10.821Z,100109.73
2018-07-16T10:13:08.735Z,100121.63
2018-07-16T10:16:05.936Z,100128.46
2018-07-16T10:19:03.122Z,100130.98
2018-07-16T10:22:00.968Z,100111.52
2018-07-16T10:24:58.299Z,100112.59
2018-07-16T10:27:55.525Z,100114.98
2018-07-16T10:30:53.075Z,100110.41
2018-07-16T10:33:51.331Z,100112.24
2018-07-16T10:36:48.389Z,100112.03
2018-07-16T10:39:45.811Z,100114.54
2018-07-16T10:42:43.675Z,100106.27
2018-07-16T10:45:41.620Z,100127.14
2018-07-16T10:48:39.668Z,100111.56
2018-07-16T10:51:37.446Z,100098.91
2018-07-16T10:54:35.092Z,100096.88
2018-07-16T10:57:32.999Z,100088.48
2018-07-16T11:00:30.659Z,100083.32
2018-07-16T11:03:28.132Z,100088.97
2018-07-16T11:06:31.279Z,100100.25
2018-07-16T11:09:28.642Z,100099.53
2018-07-16T11:12:26.758Z,100103.72
2018-07-16T11:15:25.039Z,100094.87
2018-07-16T11:18:22.631Z,100091.27
2018-07-16T11:21:20.689Z,100095.85
2018-07-16T11:24:18.478Z,100087.72
2018-07-16T11:27:15.535Z,100078.95
2018-07-16T11:30:14.503Z,100085.60
2018-07-16T11:33:12.320Z,100085.75
2018-07-16T11:36:09.575Z,100075.96
2018-07-16T11:39:06.570Z,100079.00
2018-07-16T11:42:03.810Z,100087.50
2018-07-16T11:45:00.964Z,100084.41
2018-07-16T11:47:58.071Z,100080.30
2018-07-16T11:50:55.754Z,100083.46
2018-07-16T11:53:52.830Z,100073.16
2018-07-16T11:56:50.542Z,100079.62
2018-07-16T11:59:48.199Z,100065.81
2018-07-16T12:02:46.385Z,100070.27
2018-07-16T12:05:43.772Z,100065.92
2018-07-16T12:08:41.991Z,100066.25
2018-07-16T12:11:40.090Z,100058.09
2018-07-16T12:14:38.238Z,100057.42
2018-07-16T12:17:36.084Z,100053.56
2018-07-16T12:20:34.158Z,100054.12
2018-07-16T12:23:32.279Z,100052.77
2018-07-16T12:26:30.050Z,100051.30
2018-07-16T12:29:27.457Z,100041.84
2018-07-16T12:32:24.667Z,100039.41
2018-07-16T12:35:22.564Z,100024.75
2018-07-16T12:38:20.731Z,100019.52
2018-07-16T12:41:18.365Z,100024.69
2018-07-16T12:44:16.361Z,100020.53
2018-07-16T12:47:13.631Z,100014.13
2018-07-16T12:50:11.554Z,100012.41
2018-07-16T12:53:08.596Z,100006.44
2018-07-16T12:56:05.904Z,100011.56
2018-07-16T12:59:03.366Z,99993.98
2018-07-16T13:02:01.274Z,100000.31
2018-07-16T13:04:58.590Z,99993.98
2018-07-16T13:07:56.075Z,99987.86
2018-07-16T13:10:54.011Z,99988.91
2018-07-16T13:13:52.226Z,99974.16
2018-07-16T13:16:49.690Z,99978.13
2018-07-16T13:19:47.610Z,99977.06
2018-07-16T13:22:45.726Z,99974.05
2018-07-16T13:25:43.361Z,99973.05
2018-07-16T13:28:41.081Z,99963.20
2018-07-16T13:31:38.729Z,99963.89
2018-07-16T13:34:36.102Z,99961.39
2018-07-16T13:37:34.189Z,99958.22
2018-07-16T13:40:31.333Z,99946.61
2018-07-16T13:43:29.287Z,99957.31
2018-07-16T13:46:26.664Z,99953.76
2018-07-16T13:49:24.159Z,99951.84
2018-07-16T13:52:21.435Z,99949.30
2018-07-16T13:55:19.460Z,99961.74
2018-07-16T13:58:17.725Z,99947.13
2018-07-16T14:01:15.219Z,99955.28
2018-07-16T14:04:12.626Z,99945.20
2018-07-16T14:07:10.922Z,99949.75
2018-07-16T14:10:08.070Z,99946.75
2018-07-16T14:13:06.100Z,99937.54
2018-07-16T14:16:03.320Z,99938.22
2018-07-16T14:19:01.513Z,99936.61
2018-07-16T14:21:59.180Z,99937.16
2018-07-16T14:24:56.372Z,99924.64
2018-07-16T14:27:54.261Z,99931.60
2018-07-16T14:30:52.184Z,99932.16
2018-07-16T14:33:49.834Z,99933.48
2018-07-16T14:36:47.544Z,99934.09
2018-07-16T14:39:45.818Z,99931.98
2018-07-16T14:42:43.987Z,99930.44
2018-07-16T14:45:42.149Z,99920.95
2018-07-16T14:48:40.095Z,99927.29
2018-07-16T14:51:38.104Z,99929.38
2018-07-16T14:54:35.165Z,99930.45
2018-07-16T14:57:33.091Z,99921.70
2018-07-16T15:00:30.893Z,99924.20
2018-07-16T15:03:28.989Z,99907.75
2018-07-16T15:06:26.343Z,99922.91
2018-07-16T15:09:23.612Z,99920.36
2018-07-16T15:12:21.730Z,99920.38
2018-07-16T15:15:19.130Z,99918.67
2018-07-16T15:18:17.240Z,99915.53
2018-07-16T15:21:14.734Z,99912.84
2018-07-16T15:24:12.549Z,99914.45
2018-07-16T15:27:09.985Z,99916.07
2018-07-16T15:30:08.283Z,99915.61
2018-07-16T15:33:05.542Z,99906.11
2018-07-16T15:36:03.050Z,99908.77
2018-07-16T15:39:00.496Z,99903.41
2018-07-16T15:41:58.236Z,99913.27
2018-07-16T15:44:55.333Z,99908.13
2018-07-16T15:47:53.450Z,99909.61
2018-07-16T15:50:50.846Z,99892.63
2018-07-16T15:53:48.364Z,99904.06
2018-07-16T15:56:45.909Z,99896.44
2018-07-16T15:59:44.757Z,99895.31
2018-07-16T16:02:42.435Z,99890.64
2018-07-16T16:05:40.376Z,99891.97
2018-07-16T16:08:37.726Z,99883.94
2018-07-16T16:11:35.106Z,99895.80
2018-07-16T16:14:32.947Z,99895.23
2018-07-16T16:17:30.685Z,99899.55
2018-07-16T16:20:27.996Z,99883.69
2018-07-16T16:23:25.964Z,99889.34
2018-07-16T16:26:23.293Z,99883.80
2018-07-16T16:29:20.323Z,99876.48
2018-07-16T16:32:18.414Z,99889.58
2018-07-16T16:35:16.348Z,99884.41
2018-07-16T16:38:14.395Z,99885.55
2018-07-16T16:41:11.966Z,99884.69
2018-07-16T16:44:09.742Z,99883.80
2018-07-16T16:47:07.714Z,99881.27
2018-07-16T16:50:04.877Z,99880.38
2018-07-16T16:53:02.851Z,99881.63
2018-07-16T16:56:01.064Z,99884.31
2018-07-16T16:58:58.910Z,99881.63
2018-07-16T17:01:56.496Z,99884.99
2018-07-16T17:04:53.803Z,99878.47
2018-07-16T17:07:51.065Z,99882.60
2018-07-16T17:10:48.963Z,99879.66
2018-07-16T17:13:47.059Z,99876.92
2018-07-16T17:16:44.373Z,99883.11
2018-07-16T17:19:41.755Z,99879.52
2018-07-16T17:22:39.415Z,99878.98
2018-07-16T17:25:36.777Z,99880.09
2018-07-16T17:28:34.882Z,99885.74
2018-07-16T17:31:32.587Z,99886.48
2018-07-16T17:34:29.897Z,99882.55
2018-07-16T17:37:27.036Z,99883.98
2018-07-16T17:40:25.515Z,99886.61
2018-07-16T17:43:22.725Z,99884.63
2018-07-16T17:46:20.351Z,99885.52
2018-07-16T17:49:17.637Z,99886.52
2018-07-16T17:52:15.702Z,99895.70
2018-07-16T17:55:13.319Z,99893.41
2018-07-16T17:58:11.020Z,99900.61
2018-07-16T18:01:09.032Z,99901.61
2018-07-16T18:04:07.302Z,99907.42
2018-07-16T18:07:04.618Z,99913.76
2018-07-16T18:10:02.553Z,99913.06
2018-07-16T18:13:00.108Z,99918.91
2018-07-16T18:15:58.276Z,99914.27
2018-07-16T18:18:56.223Z,99922.45
2018-07-16T18:21:53.770Z,99924.52
2018-07-16T18:24:51.764Z,99927.88
2018-07-16T18:27:49.613Z,99929.28
2018-07-16T18:30:46.765Z,99930.57
2018-07-16T18:33:44.515Z,99935.05
2018-07-16T18:36:42.176Z,99935.22
2018-07-16T18:39:39.280Z,99940.00
2018-07-16T18:42:37.267Z,99943.19
2018-07-16T18:45:35.482Z,99945.77
2018-07-16T18:48:33.161Z,99936.22
2018-07-16T18:51:31.296Z,99947.86
2018-07-16T18:54:29.251Z,99954.90
2018-07-16T18:57:26.391Z,99949.59
2018-07-16T19:00:24.393Z,99950.00
2018-07-16T19:03:22.395Z,99947.31
2018-07-16T19:06:20.243Z,99953.33
2018-07-16T19:09:18.739Z,99958.36
2018-07-16T19:12:16.176Z,99960.05
2018-07-16T19:15:13.589Z,99968.17
2018-07-16T19:18:11.664Z,99964.68
2018-07-16T19:21:09.610Z,99972.20
2018-07-16T19:24:07.546Z,99968.80
2018-07-16T19:27:05.011Z,99967.84
2018-07-16T19:30:02.316Z,99965.97
2018-07-16T19:32:59.863Z,99970.47
2018-07-16T19:35:57.456Z,99973.77
2018-07-16T19:38:55.769Z,99969.97
2018-07-16T19:41:53.027Z,99970.65
2018-07-16T19:44:51.046Z,99974.73
2018-07-16T19:47:48.735Z,99974.45
2018-07-16T19:50:46.678Z,99978.34
2018-07-16T19:53:44.057Z,99982.38
2018-07-16T19:56:41.231Z,99979.47
2018-07-16T19:59:38.331Z,99977.41
2018-07-16T20:02:35.553Z,99979.88
2018-07-16T20:05:32.930Z,99991.91
2018-07-16T20:08:30.228Z,99984.34
2018-07-16T20:11:27.799Z,99990.77
2018-07-16T20:14:25.544Z,99985.13
2018-07-16T20:17:23.019Z,99987.33
2018-07-16T20:20:22.024Z,99991.64
2018-07-16T20:23:19.392Z,99995.59
2018-07-16T20:26:17.504Z,99997.16
2018-07-16T20:29:15.334Z,99993.84
2018-07-16T20:32:12.387Z,99999.86
2018-07-16T20:35:09.491Z,100006.97
2018-07-16T20:38:06.975Z,100012.33
2018-07-16T20:41:04.921Z,100015.41
2018-07-16T20:44:02.248Z,100014.96
2018-07-16T20:46:59.439Z,100012.38
2018-07-16T20:49:57.214Z,100013.06
2018-07-16T20:52:55.200Z,100009.44
2018-07-16T20:55:53.140Z,100011.92
2018-07-16T20:58:51.047Z,100009.72
2018-07-16T21:01:48.753Z,100020.30
2018-07-16T21:04:46.413Z,100012.38
2018-07-16T21:07:43.800Z,100017.84
2018-07-16T21:10:41.223Z,100016.84
2018-07-16T21:13:39.244Z,100016.80
2018-07-16T21:16:36.446Z,100015.22
2018-07-16T21:19:33.661Z,100020.23
2018-07-16T21:22:31.780Z,100030.09
2018-07-16T21:25:30.354Z,100025.50
2018-07-16T21:28:28.433Z,100025.83
2018-07-16T21:31:25.463Z,100031.30
2018-07-16T21:34:23.278Z,100034.66
2018-07-16T21:37:20.864Z,100036.46
2018-07-16T21:40:18.890Z,100036.95
2018-07-16T21:43:16.947Z,100035.38
2018-07-16T21:46:14.554Z,100043.72
2018-07-16T21:49:12.506Z,100040.33
2018-07-16T21:52:09.860Z,100049.63
2018-07-16T21:55:07.511Z,100041.30
2018-07-16T21:58:04.980Z,100051.68
2018-07-16T22:01:02.641Z,100052.38
2018-07-16T22:04:00.639Z,100052.38
2018-07-16T22:06:57.979Z,100051.91
2018-07-16T22:09:55.358Z,100048.81
2018-07-16T22:12:52.567Z,100063.78
2018-07-16T22:15:50.702Z,100059.92
2018-07-16T22:18:47.808Z,100059.66
2018-07-16T22:21:45.806Z,100063.71
2018-07-16T22:24:43.387Z,100061.64
2018-07-16T22:27:40.620Z,100065.00
2018-07-16T22:30:37.951Z,100062.25
2018-07-16T22:33:35.923Z,100064.03
2018-07-16T22:36:33.795Z,100069.00
2018-07-16T22:39:31.059Z,100063.19
2018-07-16T22:42:28.127Z,100064.97
2018-07-16T22:45:26.130Z,100062.95
2018-07-16T22:48:23.827Z,100060.08
2018-07-16T22:51:21.034Z,100067.03
2018-07-16T22:54:18.813Z,100067.41
2018-07-16T22:57:16.502Z,100062.41
2018-07-16T23:00:14.612Z,100069.38
2018-07-16T23:03:12.482Z,100063.38
2018-07-16T23:06:09.934Z,100057.59
2018-07-16T23:09:07.887Z,100057.42
2018-07-16T23:12:05.826Z,100062.98
2018-07-16T23:15:03.432Z,100061.00
2018-07-16T23:18:01.472Z,100064.90
2018-07-16T23:20:59.139Z,100063.63
2018-07-16T23:23:57.334Z,100060.53
2018-07-16T23:26:54.598Z,100061.59
2018-07-16T23:30:01.023Z,100062.58
2018-07-16T23:32:59.140Z,100059.30
2018-07-16T23:35:56.374Z,100062.08
2018-07-16T23:38:53.642Z,100066.21
2018-07-16T23:41:51.289Z,100069.60
2018-07-16T23:44:49.083Z,100057.95
2018-07-16T23:47:46.314Z,100060.52
2018-07-16T23:50:44.172Z,100061.83
2018-07-16T23:53:41.763Z,100067.44
2018-07-16T23:56:39.725Z,100067.46
2018-07-16T23:59:37.507Z,100071.59
